createdAt,value
2023-03-25T00:02:08.275Z,4.67
2023-03-25T00:07:11.029Z,4.53
2023-03-25T00:12:18.344Z,4.30
2023-03-25T00:17:23.717Z,4.05
2023-03-25T00:22:29.454Z,3.22
2023-03-25T00:27:32.376Z,3.83
2023-03-25T00:32:40.206Z,3.60
2023-03-25T00:37:43.851Z,3.58
2023-03-25T00:47:53.439Z,3.50
2023-03-25T00:52:56.273Z,4.23
2023-03-25T00:57:59.251Z,4.60
2023-03-25T01:03:04.478Z,3.73
2023-03-25T01:08:07.859Z,3.15
2023-03-25T01:13:13.954Z,3.38
2023-03-25T01:18:16.886Z,3.35
2023-03-25T01:23:19.572Z,3.17
2023-03-25T01:28:22.106Z,2.90
2023-03-25T01:33:25.644Z,3.40
2023-03-25T01:38:30.658Z,3.30
2023-03-25T01:43:33.903Z,3.70
2023-03-25T01:48:38.852Z,3.80
2023-03-25T01:53:41.749Z,3.30
2023-03-25T01:58:44.663Z,3.60
2023-03-25T02:03:51.396Z,3.75
2023-03-25T02:08:55.273Z,4.07
2023-03-25T02:14:01.488Z,3.47
2023-03-25T02:19:25.187Z,3.58
2023-03-25T02:25:02.242Z,3.38
2023-03-25T02:30:40.211Z,3.45
2023-03-25T02:36:04.780Z,3.42
2023-03-25T02:41:22.693Z,3.55
2023-03-25T02:46:30.438Z,3.70
2023-03-25T02:51:38.065Z,3.58
2023-03-25T02:56:41.950Z,4.13
2023-03-25T03:01:50.713Z,3.83
2023-03-25T03:06:57.376Z,3.97
2023-03-25T03:12:43.153Z,4.28
2023-03-25T03:18:01.177Z,4.22
2023-03-25T03:23:08.646Z,4.20
2023-03-25T03:28:20.072Z,4.10
2023-03-25T03:33:52.769Z,3.53
2023-03-25T03:39:20.133Z,3.70
2023-03-25T03:44:27.560Z,4.55
2023-03-25T03:49:43.547Z,3.83
2023-03-25T03:54:53.229Z,3.78
2023-03-25T04:00:11.313Z,3.92
2023-03-25T04:05:19.669Z,4.30
2023-03-25T04:10:41.789Z,3.92
2023-03-25T04:15:45.258Z,3.95
2023-03-25T04:25:55.442Z,3.72
2023-03-25T04:31:00.699Z,4.93
2023-03-25T04:36:07.650Z,4.63
2023-03-25T04:41:13.497Z,4.40
2023-03-25T04:46:17.507Z,3.95
2023-03-25T04:51:20.276Z,3.72
2023-03-25T04:56:23.722Z,4.23
2023-03-25T05:06:40.815Z,5.28
2023-03-25T05:11:43.901Z,3.83
2023-03-25T05:16:46.700Z,3.92
2023-03-25T05:21:53.236Z,3.78
2023-03-25T05:26:57.813Z,4.05
2023-03-25T05:32:02.362Z,4.10
2023-03-25T05:37:05.783Z,3.75
2023-03-25T05:42:08.350Z,3.85
2023-03-25T05:47:10.900Z,3.45
2023-03-25T05:52:13.530Z,3.40
2023-03-25T05:57:16.087Z,3.10
2023-03-25T06:02:20.140Z,3.73
2023-03-25T06:07:23.388Z,4.22
2023-03-25T06:12:27.835Z,3.85
2023-03-25T06:17:30.381Z,7.20
2023-03-25T06:22:34.277Z,10.20
2023-03-25T06:27:40.628Z,10.60
2023-03-25T06:32:44.348Z,5.70
2023-03-25T06:37:48.358Z,4.40
2023-03-25T06:42:57.823Z,5.32
2023-03-25T06:48:12.387Z,5.45
2023-03-25T06:53:15.725Z,5.90
2023-03-25T06:58:18.343Z,4.25
2023-03-25T07:03:21.372Z,5.47
2023-03-25T07:08:24.987Z,6.78
2023-03-25T07:13:31.448Z,5.35
2023-03-25T07:18:34.028Z,5.15
2023-03-25T07:23:39.416Z,4.82
2023-03-25T07:28:42.658Z,4.45
2023-03-25T07:38:51.073Z,4.00
2023-03-25T07:43:57.204Z,3.53
2023-03-25T07:49:06.743Z,4.18
2023-03-25T07:54:09.669Z,3.80
2023-03-25T07:59:12.337Z,2.33
2023-03-25T08:04:15.421Z,2.42
2023-03-25T08:09:18.005Z,2.67
2023-03-25T08:14:20.516Z,2.25
2023-03-25T08:19:23.105Z,2.30
2023-03-25T08:24:27.196Z,2.70
2023-03-25T08:29:30.218Z,1.85
2023-03-25T08:34:40.036Z,1.50
2023-03-25T08:39:45.276Z,1.52
2023-03-25T08:44:48.270Z,1.80
2023-03-25T08:49:50.848Z,1.70
2023-03-25T08:54:53.549Z,1.50
2023-03-25T08:59:56.222Z,1.40
2023-03-25T09:05:04.890Z,1.60
2023-03-25T09:10:08.289Z,1.20
2023-03-25T09:15:12.459Z,1.55
2023-03-25T09:20:15.248Z,2.30
2023-03-25T09:25:18.175Z,1.63
2023-03-25T09:30:21.468Z,1.55
2023-03-25T09:35:24.421Z,2.97
2023-03-25T09:40:27.037Z,3.30
2023-03-25T09:45:31.524Z,4.80
2023-03-25T09:50:36.043Z,4.72
2023-03-25T09:55:43.587Z,18.48
2023-03-25T10:01:07.493Z,4.03
2023-03-25T10:06:21.074Z,1.05
2023-03-25T10:11:34.054Z,1.20
2023-03-25T10:16:42.841Z,1.20
2023-03-25T10:22:01.281Z,2.75
2023-03-25T10:27:20.111Z,1.30
2023-03-25T10:32:35.204Z,1.75
2023-03-25T10:37:42.252Z,1.80
2023-03-25T10:42:57.434Z,1.80
2023-03-25T10:48:11.655Z,1.90
2023-03-25T10:53:27.470Z,1.55
2023-03-25T10:58:34.661Z,1.88
2023-03-25T11:03:37.913Z,1.67
2023-03-25T11:08:57.660Z,2.20
2023-03-25T11:14:01.179Z,2.75
2023-03-25T11:19:04.592Z,3.28
2023-03-25T11:24:10.508Z,4.03
2023-03-25T11:29:16.018Z,1.58
2023-03-25T11:34:22.588Z,2.50
2023-03-25T11:39:42.695Z,3.53
2023-03-25T11:44:51.710Z,3.53
2023-03-25T11:49:54.633Z,1.92
2023-03-25T11:55:00.932Z,1.50
2023-03-25T12:00:18.533Z,1.30
2023-03-25T12:05:21.466Z,1.67
2023-03-25T12:10:59.185Z,1.35
2023-03-25T12:16:15.339Z,3.67
2023-03-25T12:21:55.381Z,5.63
2023-03-25T12:27:30.282Z,6.00
2023-03-25T12:32:53.503Z,5.30
2023-03-25T12:38:15.142Z,2.75
2023-03-25T12:43:25.581Z,2.53
2023-03-25T12:48:46.140Z,2.40
2023-03-25T12:54:01.544Z,3.30
2023-03-25T12:59:14.401Z,1.42
2023-03-25T13:04:42.096Z,4.40
2023-03-25T13:10:09.583Z,7.68
2023-03-25T13:15:27.449Z,7.25
2023-03-25T13:20:35.412Z,9.65
2023-03-25T13:26:02.982Z,5.40
2023-03-25T13:31:12.120Z,4.07
2023-03-25T13:36:26.497Z,3.10
2023-03-25T13:41:41.887Z,6.25
2023-03-25T13:46:47.852Z,8.15
2023-03-25T13:51:52.320Z,6.18
2023-03-25T13:57:23.256Z,3.72
2023-03-25T14:03:12.317Z,2.92
2023-03-25T14:08:41.805Z,3.03
2023-03-25T14:13:50.201Z,2.50
2023-03-25T14:18:56.417Z,2.22
2023-03-25T14:24:26.974Z,1.90
2023-03-25T14:29:53.520Z,3.30
2023-03-25T14:35:42.274Z,3.30
2023-03-25T14:46:11.574Z,6.80
2023-03-25T14:51:22.890Z,15.45
2023-03-25T14:56:33.689Z,17.75
2023-03-25T15:01:40.582Z,12.35
2023-03-25T15:06:47.120Z,9.48
2023-03-25T15:12:02.692Z,3.90
2023-03-25T15:17:47.354Z,4.43
2023-03-25T15:23:18.500Z,4.40
2023-03-25T15:28:54.810Z,6.40
2023-03-25T15:34:45.424Z,10.00
2023-03-25T15:40:18.495Z,10.95
2023-03-25T15:46:38.429Z,7.97
2023-03-25T15:52:08.206Z,6.57
2023-03-25T15:57:32.469Z,6.55
2023-03-25T16:03:15.855Z,6.50
2023-03-25T16:08:32.230Z,14.35
2023-03-25T16:13:35.031Z,56.45
2023-03-25T16:18:44.227Z,202.93
2023-03-25T16:23:47.309Z,264.60
2023-03-25T16:28:52.483Z,150.50
2023-03-25T16:34:01.004Z,91.55
2023-03-25T16:39:06.465Z,74.10
2023-03-25T16:44:14.755Z,57.00
2023-03-25T16:49:40.771Z,31.90
2023-03-25T16:54:47.430Z,62.37
2023-03-25T16:59:52.638Z,50.30
2023-03-25T17:05:16.439Z,61.45
2023-03-25T17:10:23.169Z,79.55
2023-03-25T17:20:46.068Z,58.42
2023-03-25T17:25:57.982Z,53.58
2023-03-25T17:31:46.904Z,40.15
2023-03-25T17:37:01.095Z,34.08
2023-03-25T17:42:08.557Z,22.83
2023-03-25T17:47:19.068Z,19.35
2023-03-25T17:52:21.797Z,25.33
2023-03-25T17:57:24.605Z,33.77
2023-03-25T18:02:28.983Z,27.20
2023-03-25T18:07:32.737Z,40.92
2023-03-25T18:12:35.507Z,34.65
2023-03-25T18:17:38.354Z,16.60
2023-03-25T18:22:44.694Z,16.48
2023-03-25T18:27:55.168Z,22.77
2023-03-25T18:33:02.651Z,21.80
2023-03-25T18:38:06.187Z,17.75
2023-03-25T18:43:09.255Z,15.00
2023-03-25T18:48:17.797Z,11.02
2023-03-25T18:53:26.877Z,10.50
2023-03-25T18:58:31.981Z,9.23
2023-03-25T19:03:40.695Z,11.73
2023-03-25T19:08:44.754Z,8.73
2023-03-25T19:13:47.750Z,8.82
2023-03-25T19:18:50.311Z,8.63
2023-03-25T19:23:54.228Z,6.27
2023-03-25T19:28:56.640Z,6.15
2023-03-25T19:34:00.183Z,8.48
2023-03-25T19:39:06.113Z,11.80
2023-03-25T19:44:09.370Z,6.70
2023-03-25T19:49:11.820Z,10.43
2023-03-25T19:54:15.540Z,9.38
2023-03-25T19:59:18.434Z,7.38
2023-03-25T20:04:21.307Z,6.50
2023-03-25T20:09:24.054Z,4.82
2023-03-25T20:14:26.809Z,4.13
2023-03-25T20:19:34.065Z,4.80
2023-03-25T20:24:38.788Z,5.55
2023-03-25T20:29:43.909Z,4.10
2023-03-25T20:34:46.942Z,3.70
2023-03-25T20:39:49.669Z,3.30
2023-03-25T20:44:54.812Z,4.10
2023-03-25T20:49:57.920Z,4.37
2023-03-25T20:55:01.349Z,3.53
2023-03-25T21:00:07.877Z,3.97
2023-03-25T21:05:11.533Z,3.47
2023-03-25T21:15:19.674Z,6.57
2023-03-25T21:20:28.999Z,9.57
2023-03-25T21:25:36.409Z,7.90
2023-03-25T21:30:39.666Z,8.20
2023-03-25T21:35:53.984Z,9.40
2023-03-25T21:41:01.286Z,7.10
2023-03-25T21:46:11.010Z,7.93
2023-03-25T21:51:16.478Z,5.28
2023-03-25T21:56:24.426Z,5.53
2023-03-25T22:01:31.140Z,3.70
2023-03-25T22:06:35.884Z,5.68
2023-03-25T22:11:39.857Z,4.60
2023-03-25T22:16:42.444Z,4.53
2023-03-25T22:21:48.448Z,5.80
2023-03-25T22:26:51.135Z,4.00
2023-03-25T22:31:59.062Z,3.17
2023-03-25T22:37:02.275Z,2.30
2023-03-25T22:42:05.010Z,2.17
2023-03-25T22:47:07.808Z,2.40
2023-03-25T22:52:11.373Z,2.33
2023-03-25T23:02:17.198Z,5.50
2023-03-25T23:07:20.137Z,4.20
2023-03-25T23:12:26.157Z,4.80
2023-03-25T23:17:31.724Z,8.27
2023-03-25T23:22:35.250Z,7.57
2023-03-25T23:27:38.195Z,6.15
2023-03-25T23:32:42.130Z,5.85
2023-03-25T23:37:45.964Z,5.30
2023-03-25T23:42:51.913Z,4.97
2023-03-25T23:47:55.953Z,4.35
2023-03-25T23:53:02.828Z,4.60
2023-03-25T23:58:12.396Z,5.43
